Harrisburg International Airport (MDT/KMDT)

Map

Destinations

Information

Location
Harrisburg, PA
Local Time
09:15 / 9:15 am
GMT Time
14:15 / 2:15 pm
Gates
Unassigned
No FAA reported delays
METAR KMDT 221406Z 07003KT 3SM BR OVC002 06/06 A2972 RMK AO2 T00610061
TAF KMDT 221126Z 2212/2312 VRB03KT 1/4SM FG OVC002 FM221600 04003KT 2SM BR OVC012 FM221900 06006KT P6SM SCT030 BKN080 FM230000 06008KT 5SM -RA BR OVC030 FM230400 07010KT 1SM -RA BR BKN009 OVC015
  • No charts available